createdAt,value
2018-09-08T00:03:37.132Z,10.43
2018-09-08T00:07:39.330Z,10.30
2018-09-08T00:11:41.505Z,9.33
2018-09-08T00:15:49.629Z,8.87
2018-09-08T00:19:57.560Z,10.60
2018-09-08T00:24:05.484Z,11.77
2018-09-08T00:28:12.508Z,10.03
2018-09-08T00:32:14.794Z,10.10
2018-09-08T00:36:17.436Z,9.27
2018-09-08T00:40:19.595Z,9.37
2018-09-08T00:44:21.778Z,9.47
2018-09-08T00:48:23.971Z,9.93
2018-09-08T00:52:26.151Z,10.37
2018-09-08T00:56:28.474Z,9.20
2018-09-08T01:00:30.819Z,9.40
2018-09-08T01:04:33.063Z,10.83
2018-09-08T01:08:35.291Z,9.93
2018-09-08T01:12:37.427Z,9.53
2018-09-08T01:16:39.686Z,11.20
2018-09-08T01:20:41.843Z,10.30
2018-09-08T01:24:44.172Z,10.10
2018-09-08T01:28:46.627Z,10.03
2018-09-08T01:32:48.830Z,10.07
2018-09-08T01:36:51.046Z,11.20
2018-09-08T01:40:53.246Z,12.13
2018-09-08T01:44:55.423Z,10.50
2018-09-08T01:48:57.589Z,10.70
2018-09-08T01:52:59.800Z,11.60
2018-09-08T01:57:02.014Z,11.50
2018-09-08T02:01:04.534Z,12.07
2018-09-08T02:05:07.062Z,12.10
2018-09-08T02:09:09.653Z,10.53
2018-09-08T02:13:12.134Z,10.10
2018-09-08T02:17:14.282Z,9.90
2018-09-08T02:21:16.494Z,11.73
2018-09-08T02:25:18.711Z,11.23
2018-09-08T02:29:20.929Z,10.60
2018-09-08T02:33:23.133Z,10.97
2018-09-08T02:37:25.308Z,9.90
2018-09-08T02:41:27.467Z,10.20
2018-09-08T02:45:29.698Z,8.80
2018-09-08T02:49:46.072Z,9.50
2018-09-08T02:53:47.214Z,9.90
2018-09-08T02:57:48.331Z,10.60
2018-09-08T03:01:49.483Z,10.87
2018-09-08T03:05:50.597Z,10.13
2018-09-08T03:09:51.829Z,9.73
2018-09-08T03:13:52.978Z,9.80
2018-09-08T03:17:54.112Z,11.33
2018-09-08T03:21:55.262Z,11.30
2018-09-08T03:25:56.407Z,11.33
2018-09-08T03:29:57.535Z,11.53
2018-09-08T03:33:58.647Z,12.97
2018-09-08T03:37:59.778Z,12.03
2018-09-08T03:42:00.882Z,12.00
2018-09-08T03:46:02.070Z,11.10
2018-09-08T03:50:03.278Z,10.20
2018-09-08T03:54:04.416Z,10.67
2018-09-08T03:58:05.575Z,11.63
2018-09-08T04:02:06.727Z,10.60
2018-09-08T04:06:08.882Z,11.80
2018-09-08T04:10:11.076Z,11.40
2018-09-08T04:14:13.333Z,11.53
2018-09-08T04:18:15.608Z,11.33
2018-09-08T04:22:22.278Z,11.27
2018-09-08T04:26:24.475Z,10.37
2018-09-08T04:30:26.656Z,10.40
2018-09-08T04:34:28.859Z,11.50
2018-09-08T04:38:31.243Z,11.90
2018-09-08T04:42:33.524Z,10.67
2018-09-08T04:46:35.687Z,10.50
2018-09-08T04:50:37.982Z,10.30
2018-09-08T04:54:40.160Z,11.43
2018-09-08T04:58:42.309Z,10.73
2018-09-08T05:02:44.494Z,10.53
2018-09-08T05:06:46.659Z,10.20
2018-09-08T05:10:48.847Z,9.33
2018-09-08T05:14:51.028Z,10.13
2018-09-08T05:18:53.189Z,9.33
2018-09-08T05:22:55.608Z,9.73
2018-09-08T05:26:57.862Z,8.93
2018-09-08T05:31:00.022Z,8.67
2018-09-08T05:35:02.245Z,8.53
2018-09-08T05:39:05.588Z,10.23
2018-09-08T05:43:07.832Z,7.27
2018-09-08T05:47:10.243Z,7.80
2018-09-08T05:51:12.481Z,7.00
2018-09-08T05:55:14.735Z,7.63
2018-09-08T05:59:17.015Z,7.20
2018-09-08T06:03:19.218Z,6.90
2018-09-08T06:07:21.371Z,7.57
2018-09-08T06:11:23.763Z,6.30
2018-09-08T06:15:25.943Z,6.50
2018-09-08T06:19:28.187Z,6.87
2018-09-08T06:23:30.345Z,5.67
2018-09-08T06:27:32.506Z,5.37
2018-09-08T06:31:34.753Z,4.77
2018-09-08T06:35:36.905Z,4.33
2018-09-08T06:39:39.062Z,3.90
2018-09-08T06:43:41.247Z,3.73
2018-09-08T06:47:43.442Z,3.27
2018-09-08T06:51:45.620Z,3.20
2018-09-08T06:55:47.846Z,3.63
2018-09-08T06:59:49.999Z,3.27
2018-09-08T07:03:52.186Z,3.17
2018-09-08T07:07:54.515Z,2.50
2018-09-08T07:11:56.834Z,1.80
2018-09-08T07:15:59.020Z,1.60
2018-09-08T07:20:01.194Z,1.20
2018-09-08T07:24:03.379Z,1.33
2018-09-08T07:28:05.603Z,1.60
2018-09-08T07:32:07.767Z,1.20
2018-09-08T07:36:09.966Z,1.30
2018-09-08T07:40:12.220Z,2.10
2018-09-08T07:44:14.430Z,1.77
2018-09-08T07:48:16.670Z,2.67
2018-09-08T07:52:19.468Z,1.37
2018-09-08T07:56:21.691Z,2.10
2018-09-08T08:00:23.922Z,1.70
2018-09-08T08:04:26.093Z,2.07
2018-09-08T08:08:28.306Z,1.60
2018-09-08T08:12:31.049Z,1.63
2018-09-08T08:16:33.315Z,1.83
2018-09-08T08:20:35.579Z,1.80
2018-09-08T08:24:37.780Z,1.77
2018-09-08T08:28:39.977Z,1.03
2018-09-08T08:32:42.372Z,1.37
2018-09-08T08:36:44.780Z,1.53
2018-09-08T08:40:46.982Z,1.73
2018-09-08T08:44:49.237Z,1.97
2018-09-08T08:48:51.475Z,2.90
2018-09-08T08:53:05.104Z,1.60
2018-09-08T08:57:17.058Z,1.70
2018-09-08T09:01:19.353Z,1.13
2018-09-08T09:05:21.748Z,1.50
2018-09-08T09:09:23.931Z,1.60
2018-09-08T09:13:26.176Z,1.67
2018-09-08T09:17:28.564Z,2.23
2018-09-08T09:22:45.043Z,1.87
2018-09-08T09:26:47.792Z,1.63
2018-09-08T09:30:49.971Z,1.40
2018-09-08T09:34:52.175Z,1.87
2018-09-08T09:38:54.334Z,1.50
2018-09-08T09:42:56.505Z,1.70
2018-09-08T09:46:58.696Z,2.30
2018-09-08T09:51:00.923Z,1.33
2018-09-08T09:55:03.193Z,1.23
2018-09-08T09:59:05.398Z,1.43
2018-09-08T10:03:07.649Z,1.20
2018-09-08T10:07:10.868Z,1.20
2018-09-08T10:11:13.105Z,1.27
2018-09-08T10:15:15.341Z,1.90
2018-09-08T10:19:17.540Z,1.50
2018-09-08T10:23:19.874Z,1.60
2018-09-08T10:27:22.021Z,1.77
2018-09-08T10:31:24.257Z,1.30
2018-09-08T10:35:26.472Z,2.00
2018-09-08T10:39:28.658Z,1.50
2018-09-08T10:43:31.179Z,1.50
2018-09-08T10:47:33.467Z,1.70
2018-09-08T10:52:45.741Z,1.33
2018-09-08T10:56:48.007Z,1.53
2018-09-08T11:00:50.219Z,1.57
2018-09-08T11:04:52.419Z,1.70
2018-09-08T11:08:54.558Z,1.57
2018-09-08T11:12:56.794Z,1.30
2018-09-08T11:16:59.043Z,1.20
2018-09-08T11:21:01.244Z,1.47
2018-09-08T11:25:04.449Z,1.37
2018-09-08T11:29:06.696Z,1.77
2018-09-08T11:33:08.973Z,2.50
2018-09-08T11:37:11.156Z,2.07
2018-09-08T11:41:13.379Z,1.30
2018-09-08T11:45:15.956Z,2.17
2018-09-08T11:49:18.876Z,1.10
2018-09-08T11:53:21.033Z,1.30
2018-09-08T11:57:23.277Z,1.43
2018-09-08T12:01:25.588Z,1.27
2018-09-08T12:05:28.107Z,1.10
2018-09-08T12:09:30.339Z,1.20
2018-09-08T12:13:32.525Z,1.80
2018-09-08T12:17:34.688Z,1.40
2018-09-08T12:21:36.839Z,1.13
2018-09-08T12:25:39.765Z,1.00
2018-09-08T12:29:42.356Z,1.50
2018-09-08T12:33:45.268Z,1.20
2018-09-08T12:37:47.461Z,1.70
2018-09-08T12:41:49.634Z,1.00
2018-09-08T12:45:51.853Z,1.10
2018-09-08T12:49:54.044Z,1.43
2018-09-08T12:53:56.263Z,1.43
2018-09-08T12:57:58.460Z,1.37
2018-09-08T13:02:00.578Z,1.13
2018-09-08T13:06:02.783Z,1.33
2018-09-08T13:10:05.003Z,0.83
2018-09-08T13:14:07.259Z,1.40
2018-09-08T13:18:09.400Z,0.90
2018-09-08T13:22:11.667Z,1.10
2018-09-08T13:26:13.837Z,1.37
2018-09-08T13:30:16.136Z,1.17
2018-09-08T13:34:18.351Z,1.13
2018-09-08T13:38:20.538Z,0.90
2018-09-08T13:42:32.364Z,1.00
2018-09-08T13:46:34.624Z,1.00
2018-09-08T13:50:36.800Z,1.30
2018-09-08T13:54:39.000Z,1.37
2018-09-08T13:58:41.975Z,1.20
2018-09-08T14:02:44.169Z,1.03
2018-09-08T14:06:46.355Z,1.20
2018-09-08T14:10:48.606Z,1.30
2018-09-08T14:14:50.935Z,1.03
2018-09-08T14:18:53.216Z,1.07
2018-09-08T14:22:55.441Z,2.70
2018-09-08T14:26:57.629Z,0.80
2018-09-08T14:30:59.900Z,1.27
2018-09-08T14:35:02.383Z,1.17
2018-09-08T14:39:06.392Z,1.60
2018-09-08T14:43:09.175Z,0.93
2018-09-08T14:47:11.389Z,1.80
2018-09-08T14:51:13.566Z,1.07
2018-09-08T14:55:15.750Z,0.80
2018-09-08T14:59:17.927Z,1.23
2018-09-08T15:03:20.114Z,1.67
2018-09-08T15:07:22.277Z,1.00
2018-09-08T15:11:24.470Z,0.97
2018-09-08T15:15:26.659Z,1.17
2018-09-08T15:19:28.867Z,2.03
2018-09-08T15:23:31.024Z,1.07
2018-09-08T15:27:33.186Z,1.53
2018-09-08T15:31:35.569Z,1.17
2018-09-08T15:35:37.904Z,1.37
2018-09-08T15:39:40.119Z,1.30
2018-09-08T15:43:42.328Z,2.23
2018-09-08T15:47:44.832Z,1.10
2018-09-08T15:51:47.020Z,1.30
2018-09-08T15:55:49.191Z,1.33
2018-09-08T15:59:51.364Z,1.30
2018-09-08T16:05:23.112Z,1.20
2018-09-08T16:09:25.378Z,1.37
2018-09-08T16:13:27.573Z,0.97
2018-09-08T16:17:29.754Z,1.47
2018-09-08T16:21:31.973Z,1.07
2018-09-08T16:25:34.461Z,0.90
2018-09-08T16:29:37.016Z,0.90
2018-09-08T16:33:40.218Z,0.90
2018-09-08T16:37:42.393Z,1.30
2018-09-08T16:41:44.570Z,1.20
2018-09-08T16:45:46.770Z,1.30
2018-09-08T16:49:49.095Z,1.37
2018-09-08T16:53:51.253Z,1.70
2018-09-08T16:57:55.641Z,3.70
2018-09-08T17:01:58.226Z,2.03
2018-09-08T17:06:01.455Z,2.93
2018-09-08T17:10:03.732Z,1.13
2018-09-08T17:14:06.022Z,1.10
2018-09-08T17:18:08.262Z,1.50
2018-09-08T17:22:10.455Z,1.30
2018-09-08T17:26:12.640Z,1.57
2018-09-08T17:30:14.872Z,1.33
2018-09-08T17:34:17.073Z,1.73
2018-09-08T17:38:19.271Z,1.80
2018-09-08T17:42:21.499Z,2.37
2018-09-08T17:46:23.733Z,1.87
2018-09-08T17:50:35.429Z,3.07
2018-09-08T17:54:37.652Z,2.37
2018-09-08T17:58:39.802Z,2.33
2018-09-08T18:02:42.483Z,3.10
2018-09-08T18:06:44.780Z,1.50
2018-09-08T18:10:47.520Z,1.30
2018-09-08T18:14:49.729Z,1.77
2018-09-08T18:18:52.001Z,1.77
2018-09-08T18:22:54.210Z,1.63
2018-09-08T18:26:56.426Z,2.90
2018-09-08T18:30:58.672Z,2.17
2018-09-08T18:35:02.704Z,1.93
2018-09-08T18:39:05.225Z,1.70
2018-09-08T18:43:07.644Z,1.60
2018-09-08T18:47:09.886Z,1.90
2018-09-08T18:51:12.101Z,1.37
2018-09-08T18:55:14.338Z,1.40
2018-09-08T18:59:16.571Z,1.80
2018-09-08T19:03:18.766Z,2.73
2018-09-08T19:07:21.103Z,2.37
2018-09-08T19:11:23.335Z,3.53
2018-09-08T19:15:25.577Z,3.53
2018-09-08T19:19:27.776Z,3.43
2018-09-08T19:23:30.027Z,3.37
2018-09-08T19:27:32.278Z,3.40
2018-09-08T19:31:34.559Z,4.17
2018-09-08T19:35:39.384Z,3.37
2018-09-08T19:39:41.673Z,3.67
2018-09-08T19:43:43.928Z,2.63
2018-09-08T19:47:51.845Z,2.60
2018-09-08T19:51:54.096Z,2.13
2018-09-08T19:55:56.266Z,2.27
2018-09-08T20:08:20.175Z,2.53
2018-09-08T20:12:22.385Z,2.70
2018-09-08T20:16:24.632Z,2.63
2018-09-08T20:20:26.913Z,2.83
2018-09-08T20:24:29.098Z,3.30
2018-09-08T20:28:31.323Z,2.73
2018-09-08T20:32:33.573Z,3.30
2018-09-08T20:36:35.825Z,2.13
2018-09-08T20:40:38.053Z,2.20
2018-09-08T20:44:40.231Z,2.70
2018-09-08T20:48:42.498Z,3.13
2018-09-08T20:52:44.726Z,2.83
2018-09-08T20:56:46.959Z,3.00
2018-09-08T21:00:49.155Z,2.97
2018-09-08T21:04:51.346Z,3.30
2018-09-08T21:08:53.544Z,2.23
2018-09-08T21:12:55.746Z,2.20
2018-09-08T21:16:57.879Z,2.40
2018-09-08T21:21:00.150Z,1.70
2018-09-08T21:25:02.659Z,1.90
2018-09-08T21:29:05.208Z,2.00
2018-09-08T21:33:07.398Z,2.37
2018-09-08T21:37:09.653Z,2.73
2018-09-08T21:41:11.911Z,2.83
2018-09-08T21:45:14.145Z,3.40
2018-09-08T21:49:16.391Z,2.57
2018-09-08T21:53:18.696Z,2.23
2018-09-08T21:57:20.876Z,1.77
2018-09-08T22:01:24.574Z,2.87
2018-09-08T22:05:26.887Z,2.43
2018-09-08T22:09:29.084Z,2.17
2018-09-08T22:13:31.504Z,2.40
2018-09-08T22:17:33.672Z,2.40
2018-09-08T22:21:35.867Z,2.70
2018-09-08T22:25:38.039Z,2.27
2018-09-08T22:29:40.209Z,2.13
2018-09-08T22:33:42.386Z,2.30
2018-09-08T22:37:44.788Z,1.70
2018-09-08T22:41:46.976Z,2.07
2018-09-08T22:45:49.160Z,1.97
2018-09-08T22:49:51.367Z,2.40
2018-09-08T22:53:53.608Z,1.73
2018-09-08T22:57:55.816Z,2.00
2018-09-08T23:01:58.027Z,1.90
2018-09-08T23:06:00.218Z,1.83
2018-09-08T23:10:02.867Z,2.17
2018-09-08T23:14:05.439Z,1.77
2018-09-08T23:18:07.601Z,2.10
2018-09-08T23:22:09.821Z,2.30
2018-09-08T23:26:12.235Z,2.20
2018-09-08T23:30:14.379Z,1.83
2018-09-08T23:34:16.825Z,2.07
2018-09-08T23:38:18.984Z,3.07
2018-09-08T23:42:21.163Z,2.17
2018-09-08T23:46:23.335Z,2.20
2018-09-08T23:50:25.617Z,2.10
2018-09-08T23:54:27.703Z,2.20
2018-09-08T23:58:29.870Z,2.33
